Time;durP1;ratioP1;P1;durP2;ratioP2;P2;SDS_P1;SDS_P2;PMS_P1;PMS_P2;Temp;Humidity;BMP_temperature;BMP_pressure;BME280_temperature;BME280_humidity;BME280_pressure;Samples;Min_cycle;Max_cycle;Signal;HPM_P1;HPM_P2
2022/10/26 00:01:24;;;;;;;;;;;;;;;10.49;70.42;101052.81;5031849;28;20027;-27
2022/10/26 00:03:49;;;;;;;;;;;;;;;10.43;70.28;101056.31;5039695;28;19920;-27
2022/10/26 00:06:16;;;;;;;;;;;;;;;10.42;70.42;101056.31;5042167;28;19916;-28
2022/10/26 00:08:41;;;;;;;;;;;;;;;10.40;70.27;101054.56;5042673;28;19917;-27
2022/10/26 00:11:07;;;;;;;;;;;;;;;10.38;70.63;101058.94;5040781;28;20258;-27
2022/10/26 00:13:32;;;;;;;;;;;;;;;10.35;70.31;101053.72;5042415;28;19924;-27
2022/10/26 00:15:57;;;;;;;;;;;;;;;10.33;70.28;101057.19;5035859;28;20008;-27
2022/10/26 00:18:22;;;;;;;;;;;;;;;10.30;70.59;101058.09;5049940;28;19960;-27
2022/10/26 00:20:48;;;;;;;;;;;;;;;10.27;70.47;101050.19;5046332;28;20012;-27
2022/10/26 00:23:13;;;;;;;;;;;;;;;10.26;70.63;101061.63;5045960;28;19928;-27
2022/10/26 00:25:39;;;;;;;;;;;;;;;10.23;70.28;101054.59;5043220;28;20007;-27
2022/10/26 00:28:04;;;;;;;;;;;;;;;10.21;70.39;101053.69;5042665;28;19920;-27
2022/10/26 00:30:29;;;;;;;;;;;;;;;10.20;70.63;101059.00;5048373;28;20404;-27
2022/10/26 00:32:54;;;;;;;;;;;;;;;10.18;70.29;101060.75;5053390;28;20444;-27
2022/10/26 00:35:19;;;;;;;;;;;;;;;10.14;70.25;101060.75;5047827;28;19952;-27
2022/10/26 00:37:45;;;;;;;;;;;;;;;10.12;70.46;101067.78;5039625;28;20298;-27
2022/10/26 00:40:10;;;;;;;;;;;;;;;10.09;70.37;101073.06;5033661;28;19920;-28
2022/10/26 00:42:35;;;;;;;;;;;;;;;10.07;70.57;101077.44;5033660;28;19955;-27
2022/10/26 00:45:03;;;;;;;;;;;;;;;10.04;70.31;101069.53;5035624;28;20366;-28
2022/10/26 00:47:42;;;;;;;;;;;;;;;10.01;70.61;101072.19;5051988;28;19943;-27
2022/10/26 00:50:09;;;;;;;;;;;;;;;9.98;70.70;101074.81;5034966;28;20391;-28
2022/10/26 00:52:35;;;;;;;;;;;;;;;9.96;70.49;101071.31;5029996;28;20004;-27
2022/10/26 00:55:00;;;;;;;;;;;;;;;9.95;70.38;101070.44;5023820;28;20083;-27
2022/10/26 00:57:25;;;;;;;;;;;;;;;9.93;70.46;101069.53;5032355;28;19917;-27
2022/10/26 00:59:51;;;;;;;;;;;;;;;9.92;70.74;101072.19;5032420;28;19917;-28
2022/10/26 01:02:16;;;;;;;;;;;;;;;9.89;70.75;101067.78;5034435;28;19975;-27
2022/10/26 01:04:41;;;;;;;;;;;;;;;9.87;70.68;101065.16;5037127;28;19959;-28
2022/10/26 01:07:06;;;;;;;;;;;;;;;9.84;70.45;101059.88;5026800;28;19956;-27
2022/10/26 01:09:31;;;;;;;;;;;;;;;9.83;70.50;101054.59;5035077;28;19967;-27
2022/10/26 01:11:57;;;;;;;;;;;;;;;9.81;70.75;101054.63;5043195;28;19952;-27
2022/10/26 01:14:22;;;;;;;;;;;;;;;9.80;70.60;101058.13;5041013;28;19924;-27
2022/10/26 01:16:50;;;;;;;;;;;;;;;9.80;70.89;101060.75;5046395;28;20012;-27
2022/10/26 01:19:27;;;;;;;;;;;;;;;9.77;70.83;101060.75;5043272;28;20016;-27
2022/10/26 01:21:52;;;;;;;;;;;;;;;9.76;70.61;101069.53;5039664;28;19952;-27
2022/10/26 01:24:37;;;;;;;;;;;;;;;9.73;70.76;101064.25;5050539;28;19964;-28
2022/10/26 01:27:18;;;;;;;;;;;;;;;9.72;70.78;101068.69;5042326;28;19964;-27
2022/10/26 01:29:43;;;;;;;;;;;;;;;9.70;70.83;101056.38;5043285;28;20452;-27
2022/10/26 01:32:09;;;;;;;;;;;;;;;9.68;70.67;101055.50;5044299;28;19925;-28
2022/10/26 01:34:54;;;;;;;;;;;;;;;9.66;70.82;101052.84;5012159;28;20297;-27
2022/10/26 01:37:21;;;;;;;;;;;;;;;9.63;70.79;101050.22;5026397;28;19963;-27
2022/10/26 01:39:47;;;;;;;;;;;;;;;9.63;70.70;101048.47;5033813;28;19968;-27
2022/10/26 01:42:12;;;;;;;;;;;;;;;9.61;70.84;101041.44;5048934;28;20340;-28
2022/10/26 01:44:41;;;;;;;;;;;;;;;9.59;70.90;101037.91;5034459;28;20383;-27
2022/10/26 01:47:06;;;;;;;;;;;;;;;9.58;70.85;101038.81;5027067;28;19917;-27
2022/10/26 01:49:32;;;;;;;;;;;;;;;9.54;70.88;101032.63;5016617;28;20270;-28
2022/10/26 01:51:57;;;;;;;;;;;;;;;9.54;70.63;101037.91;5027000;28;20303;-27
2022/10/26 01:54:22;;;;;;;;;;;;;;;9.52;70.62;101034.41;5051050;28;19920;-28
2022/10/26 01:56:49;;;;;;;;;;;;;;;9.49;70.79;101040.56;5045858;28;19917;-27
2022/10/26 01:59:17;;;;;;;;;;;;;;;9.47;70.67;101031.75;5049930;28;19913;-27
2022/10/26 02:01:45;;;;;;;;;;;;;;;9.46;70.67;101030.00;5044005;28;19924;-27
2022/10/26 02:04:25;;;;;;;;;;;;;;;9.45;70.89;101024.75;5044860;28;19917;-27
2022/10/26 02:07:03;;;;;;;;;;;;;;;9.43;70.93;101029.13;5045193;28;20329;-27
2022/10/26 02:09:38;;;;;;;;;;;;;;;9.41;70.86;101025.63;5043579;28;19912;-27
2022/10/26 02:12:05;;;;;;;;;;;;;;;9.39;70.84;101027.34;5051745;28;19917;-27
2022/10/26 02:14:42;;;;;;;;;;;;;;;9.36;71.12;101029.13;5032260;28;19916;-28
2022/10/26 02:17:10;;;;;;;;;;;;;;;9.34;71.13;101020.34;5030670;28;19913;-28
2022/10/26 02:19:38;;;;;;;;;;;;;;;9.33;70.94;101015.94;5022553;28;20364;-27
2022/10/26 02:22:06;;;;;;;;;;;;;;;9.31;71.15;101019.47;5029276;28;19920;-27
2022/10/26 02:24:31;;;;;;;;;;;;;;;9.30;70.91;101023.84;5019753;28;19916;-27
2022/10/26 02:26:57;;;;;;;;;;;;;;;9.30;71.01;101021.22;5007205;28;19978;-28
2022/10/26 02:29:22;;;;;;;;;;;;;;;9.28;70.98;101017.72;5043910;28;19917;-27
2022/10/26 02:31:47;;;;;;;;;;;;;;;9.28;71.26;101028.25;5040961;28;19917;-27
2022/10/26 02:34:13;;;;;;;;;;;;;;;9.26;71.12;101022.09;5028153;28;20321;-27
2022/10/26 02:36:40;;;;;;;;;;;;;;;9.24;71.30;101018.59;5044211;28;19957;-27
2022/10/26 02:39:05;;;;;;;;;;;;;;;9.23;71.03;101017.69;5021398;28;21335;-27
2022/10/26 02:41:30;;;;;;;;;;;;;;;9.22;71.14;101015.06;5007775;28;19922;-27
2022/10/26 02:44:11;;;;;;;;;;;;;;;9.22;71.05;101023.84;5026098;28;19963;-27
2022/10/26 02:46:37;;;;;;;;;;;;;;;9.19;71.36;101015.94;5023958;28;19917;-28
2022/10/26 02:49:02;;;;;;;;;;;;;;;9.19;71.43;101015.03;5039929;28;19951;-28
2022/10/26 02:51:34;;;;;;;;;;;;;;;9.19;71.31;101025.56;5041297;28;19938;-27
2022/10/26 02:54:18;;;;;;;;;;;;;;;9.16;71.05;101022.94;5042433;28;20282;-27
2022/10/26 02:56:57;;;;;;;;;;;;;;;9.14;71.12;101014.16;5039693;28;20183;-27
2022/10/26 02:59:22;;;;;;;;;;;;;;;9.11;71.32;101013.28;5043391;28;19931;-27
2022/10/26 03:01:48;;;;;;;;;;;;;;;9.10;71.30;101014.16;5032728;28;20371;-27
2022/10/26 03:04:13;;;;;;;;;;;;;;;9.08;71.24;101008.03;5051097;28;19920;-27
2022/10/26 03:06:38;;;;;;;;;;;;;;;9.09;71.32;101006.25;5046341;28;19917;-28
2022/10/26 03:09:03;;;;;;;;;;;;;;;9.08;71.40;101007.13;5028389;28;19940;-28
2022/10/26 03:11:29;;;;;;;;;;;;;;;9.07;71.23;101010.66;5041488;28;20423;-27
2022/10/26 03:13:54;;;;;;;;;;;;;;;9.05;71.30;101008.00;5039943;28;19978;-27
2022/10/26 03:16:19;;;;;;;;;;;;;;;9.03;71.22;101004.47;5043188;28;19920;-27
2022/10/26 03:18:44;;;;;;;;;;;;;;;9.02;71.47;101005.38;5041461;28;19951;-27
2022/10/26 03:21:10;;;;;;;;;;;;;;;9.03;71.38;101001.00;5042620;28;19928;-27
2022/10/26 03:23:35;;;;;;;;;;;;;;;9.01;71.28;101001.00;5048341;28;19920;-27
2022/10/26 03:26:00;;;;;;;;;;;;;;;9.00;71.19;101001.84;5034802;28;19972;-27
2022/10/26 03:28:25;;;;;;;;;;;;;;;8.99;71.44;100997.47;5051126;28;19913;-28
2022/10/26 03:30:51;;;;;;;;;;;;;;;8.94;71.37;100997.44;5047438;28;19917;-27
2022/10/26 03:33:16;;;;;;;;;;;;;;;8.92;71.32;100999.19;5043299;28;19917;-27
2022/10/26 03:35:41;;;;;;;;;;;;;;;8.95;71.17;101006.22;5042273;28;19917;-27
2022/10/26 03:38:06;;;;;;;;;;;;;;;8.93;71.27;100998.31;5045194;28;20359;-27
2022/10/26 03:40:32;;;;;;;;;;;;;;;8.92;71.26;100993.06;5046657;28;19989;-27
2022/10/26 03:42:57;;;;;;;;;;;;;;;8.91;71.21;100991.31;5043623;28;19975;-28
2022/10/26 03:45:22;;;;;;;;;;;;;;;8.88;71.23;100986.03;5041940;28;19919;-27
2022/10/26 03:47:48;;;;;;;;;;;;;;;8.83;71.23;100986.91;5043954;28;20412;-27
2022/10/26 03:50:14;;;;;;;;;;;;;;;8.83;71.22;100989.53;5024823;28;19925;-27
2022/10/26 03:52:39;;;;;;;;;;;;;;;8.81;71.19;100983.38;5046255;28;19978;-27
2022/10/26 03:55:05;;;;;;;;;;;;;;;8.80;71.24;100979.00;5054516;28;19948;-27
2022/10/26 03:57:30;;;;;;;;;;;;;;;8.78;71.32;100980.75;5018809;28;19912;-27
2022/10/26 03:59:56;;;;;;;;;;;;;;;8.76;71.41;100989.47;5021274;28;19917;-26
2022/10/26 04:02:21;;;;;;;;;;;;;;;8.74;71.43;100984.25;5027128;28;19925;-27
2022/10/26 04:04:46;;;;;;;;;;;;;;;8.73;71.28;100975.47;5036650;28;19917;-27
2022/10/26 04:07:11;;;;;;;;;;;;;;;8.70;71.38;100975.44;5049899;28;19917;-27
2022/10/26 04:09:36;;;;;;;;;;;;;;;8.69;71.35;100978.97;5041851;28;19917;-28
2022/10/26 04:12:02;;;;;;;;;;;;;;;8.66;71.34;100978.06;5038546;28;19924;-27
2022/10/26 04:14:27;;;;;;;;;;;;;;;8.66;71.56;100983.31;5049617;28;19917;-27
2022/10/26 04:16:52;;;;;;;;;;;;;;;8.65;71.46;100976.31;5050365;28;20567;-27
2022/10/26 04:19:17;;;;;;;;;;;;;;;8.60;71.40;100974.53;5046881;28;20354;-27
2022/10/26 04:21:43;;;;;;;;;;;;;;;8.63;71.51;100978.06;5043120;28;19932;-27
2022/10/26 04:24:09;;;;;;;;;;;;;;;8.59;71.57;100972.78;5041903;28;19921;-27
2022/10/26 04:26:34;;;;;;;;;;;;;;;8.57;71.58;100979.78;5032763;28;20093;-27
2022/10/26 04:28:59;;;;;;;;;;;;;;;8.58;71.51;100981.53;5040647;28;20374;-27
2022/10/26 04:31:24;;;;;;;;;;;;;;;8.55;71.61;100978.91;5045177;28;19981;-27
2022/10/26 04:33:49;;;;;;;;;;;;;;;8.53;71.63;100988.53;5049026;28;19924;-27
2022/10/26 04:36:15;;;;;;;;;;;;;;;8.51;71.65;100990.25;5007374;28;19931;-27
2022/10/26 04:38:40;;;;;;;;;;;;;;;8.48;71.75;100993.72;5045635;28;19919;-27
2022/10/26 04:41:05;;;;;;;;;;;;;;;8.49;71.63;100986.72;5051391;28;19975;-27
2022/10/26 04:43:30;;;;;;;;;;;;;;;8.47;71.56;100989.34;5040242;28;19917;-27
2022/10/26 04:45:56;;;;;;;;;;;;;;;8.45;71.80;100985.84;5038673;28;20443;-27
2022/10/26 04:48:21;;;;;;;;;;;;;;;8.44;71.70;100989.31;5033734;28;20036;-27
2022/10/26 04:50:47;;;;;;;;;;;;;;;8.43;71.93;100989.31;5033384;28;19913;-28
2022/10/26 04:53:12;;;;;;;;;;;;;;;8.41;71.77;100989.31;5047659;28;20007;-27
2022/10/26 04:55:37;;;;;;;;;;;;;;;8.41;71.89;100991.94;5037297;28;20008;-27
2022/10/26 04:58:03;;;;;;;;;;;;;;;8.39;71.79;100984.91;5034259;28;19963;-27
2022/10/26 05:00:29;;;;;;;;;;;;;;;8.38;71.86;100989.31;5049477;28;19974;-27
2022/10/26 05:02:57;;;;;;;;;;;;;;;8.37;71.93;100991.94;5044788;28;19928;-27
2022/10/26 05:05:23;;;;;;;;;;;;;;;8.34;71.93;100991.03;5032013;28;20389;-28
2022/10/26 05:07:55;;;;;;;;;;;;;;;8.36;71.90;100991.03;5033393;28;19913;-27
2022/10/26 05:10:20;;;;;;;;;;;;;;;8.33;71.80;100988.41;5052168;28;20034;-28
2022/10/26 05:12:49;;;;;;;;;;;;;;;8.34;71.92;100983.16;5053061;28;20317;-27
2022/10/26 05:15:14;;;;;;;;;;;;;;;8.33;72.08;100981.41;5047194;28;19928;-27
2022/10/26 05:17:39;;;;;;;;;;;;;;;8.31;72.01;100977.88;5042508;28;19916;-27
2022/10/26 05:20:09;;;;;;;;;;;;;;;8.34;72.19;100977.91;5052988;28;19923;-28
2022/10/26 05:22:36;;;;;;;;;;;;;;;8.33;71.96;100978.78;5052340;28;21532;-27
2022/10/26 05:25:01;;;;;;;;;;;;;;;8.36;72.15;100979.69;5050879;28;20012;-27
2022/10/26 05:27:26;;;;;;;;;;;;;;;8.37;72.15;100981.44;5052786;28;19952;-27
2022/10/26 05:29:51;;;;;;;;;;;;;;;8.38;72.07;100977.91;5034183;28;19960;-27
2022/10/26 05:32:17;;;;;;;;;;;;;;;8.37;71.93;100976.16;5052872;28;19923;-27
2022/10/26 05:34:42;;;;;;;;;;;;;;;8.37;72.05;100976.16;5042458;28;19921;-27
2022/10/26 05:37:07;;;;;;;;;;;;;;;8.37;72.00;100974.41;5032792;28;19928;-27
2022/10/26 05:39:32;;;;;;;;;;;;;;;8.37;71.91;100976.16;5032787;28;19936;-27
2022/10/26 05:41:58;;;;;;;;;;;;;;;8.35;72.02;100970.91;5032283;28;20012;-28
2022/10/26 05:44:23;;;;;;;;;;;;;;;8.35;72.03;100978.78;5032236;28;19917;-28
2022/10/26 05:46:48;;;;;;;;;;;;;;;8.35;72.08;100968.28;5032056;28;20007;-28
2022/10/26 05:49:14;;;;;;;;;;;;;;;8.33;71.97;100978.78;5046971;28;20245;-28
2022/10/26 05:51:40;;;;;;;;;;;;;;;8.33;72.15;100976.16;5049007;28;19917;-28
2022/10/26 05:54:05;;;;;;;;;;;;;;;8.33;72.15;100983.13;5051607;28;19922;-28
2022/10/26 05:56:33;;;;;;;;;;;;;;;8.36;72.16;100982.31;5052607;28;19982;-28
2022/10/26 05:58:58;;;;;;;;;;;;;;;8.34;72.06;100988.41;5052224;28;20415;-28
2022/10/26 06:01:42;;;;;;;;;;;;;;;8.33;72.05;100981.41;5051451;28;19929;-30
2022/10/26 06:04:13;;;;;;;;;;;;;;;8.36;72.15;100990.19;5052577;28;19936;-28
2022/10/26 06:06:41;;;;;;;;;;;;;;;8.36;71.97;100995.44;5052458;28;19913;-28
2022/10/26 06:09:08;;;;;;;;;;;;;;;8.36;71.95;101005.97;5033775;28;20054;-28
2022/10/26 06:11:33;;;;;;;;;;;;;;;8.34;72.19;100998.91;5043546;28;20392;-28
2022/10/26 06:14:00;;;;;;;;;;;;;;;8.35;72.14;100997.19;5018712;28;19947;-28
2022/10/26 06:16:34;;;;;;;;;;;;;;;8.34;72.15;101004.19;5035507;28;20013;-28
2022/10/26 06:19:11;;;;;;;;;;;;;;;8.34;72.06;101008.56;5034203;28;19920;-28
2022/10/26 06:21:52;;;;;;;;;;;;;;;8.33;72.43;100998.91;5051745;28;19916;-28
2022/10/26 06:24:30;;;;;;;;;;;;;;;8.31;72.14;100998.91;5052359;28;19916;-28
2022/10/26 06:26:56;;;;;;;;;;;;;;;8.32;72.43;101005.03;5052341;28;20062;-28
2022/10/26 06:29:31;;;;;;;;;;;;;;;8.32;72.45;101005.03;5050522;28;20384;-28
2022/10/26 06:31:56;;;;;;;;;;;;;;;8.32;72.42;101000.69;5033240;28;19924;-28
2022/10/26 06:34:25;;;;;;;;;;;;;;;8.32;72.35;100994.53;5034102;28;19913;-28
2022/10/26 06:36:51;;;;;;;;;;;;;;;8.31;72.54;100998.91;5033958;28;19921;-28
2022/10/26 06:39:16;;;;;;;;;;;;;;;8.31;72.50;101001.53;5044478;28;20000;-28
2022/10/26 06:41:41;;;;;;;;;;;;;;;8.30;72.64;101002.41;5046297;28;19921;-28
2022/10/26 06:44:07;;;;;;;;;;;;;;;8.29;72.59;100998.03;5051666;28;19924;-28
2022/10/26 06:46:36;;;;;;;;;;;;;;;8.30;72.70;100991.88;5051833;28;19913;-28
2022/10/26 06:49:04;;;;;;;;;;;;;;;8.29;72.78;101003.28;5051543;28;20289;-28
2022/10/26 06:51:29;;;;;;;;;;;;;;;8.28;72.89;100998.91;5048379;28;20024;-28
2022/10/26 06:53:55;;;;;;;;;;;;;;;8.29;73.01;101005.91;5032551;28;20015;-28
2022/10/26 06:56:20;;;;;;;;;;;;;;;8.28;73.30;100998.00;5032038;28;19940;-28
2022/10/26 06:58:45;;;;;;;;;;;;;;;8.29;73.30;101005.91;5031770;28;20011;-28
2022/10/26 07:01:11;;;;;;;;;;;;;;;8.31;73.47;101003.28;5013760;28;19924;-28
2022/10/26 07:03:36;;;;;;;;;;;;;;;8.31;73.84;100998.91;5036537;28;19971;-28
2022/10/26 07:06:01;;;;;;;;;;;;;;;8.32;73.67;101005.94;5016261;28;19925;-28
2022/10/26 07:08:27;;;;;;;;;;;;;;;8.33;74.02;101002.44;5045832;28;20271;-28
2022/10/26 07:10:52;;;;;;;;;;;;;;;8.36;73.76;101006.81;5050276;28;19913;-28
2022/10/26 07:13:17;;;;;;;;;;;;;;;8.38;73.89;101005.09;5051691;28;19912;-28
2022/10/26 07:15:43;;;;;;;;;;;;;;;8.41;73.77;101004.22;5051613;28;19919;-27
2022/10/26 07:18:08;;;;;;;;;;;;;;;8.45;73.92;101003.38;5051371;28;19913;-28
2022/10/26 07:20:37;;;;;;;;;;;;;;;8.49;74.29;101010.38;5051069;28;19933;-28
2022/10/26 07:23:05;;;;;;;;;;;;;;;8.53;74.18;101008.63;5055378;28;19912;-28
2022/10/26 07:25:30;;;;;;;;;;;;;;;8.54;74.20;101013.94;5037745;28;19917;-28
2022/10/26 07:27:57;;;;;;;;;;;;;;;8.57;74.22;101015.72;5037379;28;20289;-28
2022/10/26 07:30:22;;;;;;;;;;;;;;;8.59;73.80;101014.88;5048754;28;20015;-28
2022/10/26 07:32:47;;;;;;;;;;;;;;;8.61;73.51;101017.50;5035075;28;20043;-28
2022/10/26 07:35:13;;;;;;;;;;;;;;;8.64;73.60;101017.50;5036233;28;19917;-28
2022/10/26 07:37:38;;;;;;;;;;;;;;;8.67;73.25;101029.81;5033933;28;19917;-28
2022/10/26 07:40:04;;;;;;;;;;;;;;;8.69;73.31;101025.41;5034499;28;19928;-28
2022/10/26 07:42:30;;;;;;;;;;;;;;;8.69;73.53;101021.03;5035912;28;20481;-28
2022/10/26 07:44:55;;;;;;;;;;;;;;;8.71;73.43;101024.53;5035065;28;20011;-28
2022/10/26 07:47:20;;;;;;;;;;;;;;;8.74;72.96;101018.44;5041084;28;19924;-28
2022/10/26 07:49:46;;;;;;;;;;;;;;;8.76;72.93;101021.94;5037039;28;19939;-28
2022/10/26 07:52:11;;;;;;;;;;;;;;;8.78;73.08;101014.06;5054780;28;19987;-28
2022/10/26 07:54:36;;;;;;;;;;;;;;;8.79;72.91;101013.16;5052948;28;20373;-28
2022/10/26 07:57:02;;;;;;;;;;;;;;;8.81;73.02;101022.81;5054731;28;19919;-28
2022/10/26 07:59:27;;;;;;;;;;;;;;;8.83;72.90;101013.19;5054625;28;19912;-28
2022/10/26 08:01:52;;;;;;;;;;;;;;;8.87;73.13;101015.84;5054080;28;20371;-28
2022/10/26 08:04:17;;;;;;;;;;;;;;;8.91;73.04;101021.13;5047643;28;19917;-28
2022/10/26 08:06:43;;;;;;;;;;;;;;;8.95;73.17;101017.63;5017362;28;20424;-28
2022/10/26 08:09:08;;;;;;;;;;;;;;;9.01;73.12;101016.78;5037135;28;19917;-28
2022/10/26 08:11:35;;;;;;;;;;;;;;;9.06;73.04;101012.41;5033885;28;20020;-28
2022/10/26 08:14:01;;;;;;;;;;;;;;;9.12;73.02;101019.44;5034519;28;20370;-28
2022/10/26 08:16:27;;;;;;;;;;;;;;;9.19;72.79;101012.41;5048939;28;19971;-28
2022/10/26 08:18:52;;;;;;;;;;;;;;;9.25;72.78;101020.34;5054239;28;19913;-28
2022/10/26 08:21:18;;;;;;;;;;;;;;;9.31;72.68;101015.06;5018071;28;20123;-28
2022/10/26 08:23:43;;;;;;;;;;;;;;;9.39;72.74;101016.81;5034487;28;20354;-28
2022/10/26 08:26:10;;;;;;;;;;;;;;;9.46;72.63;101029.13;5035439;28;19980;-28
2022/10/26 08:28:35;;;;;;;;;;;;;;;9.52;72.75;101023.00;5016874;28;20392;-28
2022/10/26 08:31:01;;;;;;;;;;;;;;;9.58;72.77;101018.63;5040846;28;20007;-28
2022/10/26 08:33:26;;;;;;;;;;;;;;;9.65;72.77;101024.78;5054134;28;19920;-28
2022/10/26 08:35:58;;;;;;;;;;;;;;;9.70;72.68;101014.25;5053826;28;20403;-28
2022/10/26 08:38:23;;;;;;;;;;;;;;;9.77;72.81;101013.34;5054242;28;19941;-28
2022/10/26 08:40:49;;;;;;;;;;;;;;;9.81;72.82;101007.22;5053741;28;20021;-28
2022/10/26 08:43:21;;;;;;;;;;;;;;;9.87;72.77;101008.97;5045401;28;19916;-28
2022/10/26 08:45:51;;;;;;;;;;;;;;;9.94;73.03;101008.06;5015800;28;19920;-28
2022/10/26 08:48:18;;;;;;;;;;;;;;;9.99;72.99;101000.16;5053343;28;19944;-28
2022/10/26 08:50:51;;;;;;;;;;;;;;;10.02;73.13;101002.78;5053458;28;19913;-28
2022/10/26 08:53:17;;;;;;;;;;;;;;;10.08;73.25;101010.69;5053557;28;20004;-27
2022/10/26 08:55:43;;;;;;;;;;;;;;;10.11;73.13;100999.28;5053501;28;19948;-27
2022/10/26 08:58:12;;;;;;;;;;;;;;;10.15;73.38;101008.94;5050391;28;19967;-27
2022/10/26 09:00:37;;;;;;;;;;;;;;;10.20;73.56;101006.28;5016402;28;21369;-28
2022/10/26 09:03:05;;;;;;;;;;;;;;;10.25;73.79;100999.22;5051726;28;20385;-28
2022/10/26 09:05:37;;;;;;;;;;;;;;;10.32;74.04;101000.97;5053658;28;19920;-28
2022/10/26 09:08:03;;;;;;;;;;;;;;;10.38;74.16;101008.84;5035572;28;19913;-28
2022/10/26 09:10:37;;;;;;;;;;;;;;;10.47;74.38;101009.75;5051112;28;20388;-27
2022/10/26 09:13:17;;;;;;;;;;;;;;;10.57;74.81;101018.50;5051550;28;19927;-28
2022/10/26 09:16:01;;;;;;;;;;;;;;;10.65;75.27;101014.97;5052961;28;19913;-27
2022/10/26 09:18:46;;;;;;;;;;;;;;;10.74;75.13;101007.91;5033236;28;20346;-28
2022/10/26 09:21:14;;;;;;;;;;;;;;;10.81;75.27;101009.63;5050677;28;20293;-28
2022/10/26 09:23:59;;;;;;;;;;;;;;;10.89;75.49;101012.22;5051376;28;20443;-28
2022/10/26 09:26:32;;;;;;;;;;;;;;;10.96;75.72;101018.31;5034960;28;20382;-27
2022/10/26 09:29:00;;;;;;;;;;;;;;;11.02;75.71;101007.75;5052914;28;19959;-27
2022/10/26 09:31:25;;;;;;;;;;;;;;;11.07;75.34;101013.88;5052420;28;19920;-27
2022/10/26 09:33:51;;;;;;;;;;;;;;;11.14;75.39;101012.09;5048044;28;20019;-28
2022/10/26 09:36:19;;;;;;;;;;;;;;;11.21;75.78;101026.13;5052292;28;19921;-28
2022/10/26 09:39:00;;;;;;;;;;;;;;;11.28;76.25;101022.56;5052595;28;20348;-28
2022/10/26 09:41:27;;;;;;;;;;;;;;;11.33;76.38;101011.97;5034760;28;19924;-27
2022/10/26 09:43:57;;;;;;;;;;;;;;;11.39;76.12;101022.47;5033971;28;19913;-27
2022/10/26 09:46:27;;;;;;;;;;;;;;;11.43;75.73;101018.94;5052443;28;20054;-28
2022/10/26 09:49:03;;;;;;;;;;;;;;;11.49;76.02;101031.22;5031961;28;19917;-28
2022/10/26 09:51:28;;;;;;;;;;;;;;;11.54;75.84;101025.00;5014608;28;19913;-28
2022/10/26 09:53:55;;;;;;;;;;;;;;;11.60;75.97;101026.72;5014792;28;19917;-28
2022/10/26 09:56:20;;;;;;;;;;;;;;;11.66;76.08;101031.09;5032578;28;19913;-28
2022/10/26 09:58:47;;;;;;;;;;;;;;;11.71;76.06;101028.41;5023227;28;20285;-28
2022/10/26 10:01:29;;;;;;;;;;;;;;;11.76;76.00;101030.13;5034040;28;19963;-28
2022/10/26 10:04:12;;;;;;;;;;;;;;;11.80;76.08;101033.63;5052556;28;19936;-28
2022/10/26 10:06:38;;;;;;;;;;;;;;;11.87;76.06;101034.47;5035672;28;20266;-28
2022/10/26 10:09:13;;;;;;;;;;;;;;;11.92;76.44;101027.34;5049644;28;20495;-28
2022/10/26 10:11:43;;;;;;;;;;;;;;;11.98;76.83;101026.41;5051361;28;19932;-28
2022/10/26 10:14:12;;;;;;;;;;;;;;;12.04;77.34;101036.94;5052311;28;19913;-27
2022/10/26 10:16:38;;;;;;;;;;;;;;;12.10;77.49;101030.75;5034390;28;19935;-28
2022/10/26 10:19:03;;;;;;;;;;;;;;;12.17;77.87;101035.09;5052457;28;20364;-28
2022/10/26 10:21:39;;;;;;;;;;;;;;;12.22;78.29;101029.75;5033736;28;19921;-28
2022/10/26 10:24:25;;;;;;;;;;;;;;;12.30;78.16;101033.19;5051724;28;19927;-28
2022/10/26 10:27:16;;;;;;;;;;;;;;;12.38;78.56;101041.03;5051679;28;19913;-28
2022/10/26 10:29:43;;;;;;;;;;;;;;;12.48;79.28;101036.53;5047551;28;19913;-28
2022/10/26 10:32:16;;;;;;;;;;;;;;;12.54;79.62;101047.06;5051522;28;19919;-28
2022/10/26 10:34:41;;;;;;;;;;;;;;;12.64;80.30;101046.03;5052254;28;19913;-28
2022/10/26 10:37:12;;;;;;;;;;;;;;;12.73;79.89;101036.25;5051680;28;19924;-28
2022/10/26 10:39:38;;;;;;;;;;;;;;;12.82;80.55;101042.31;5026598;28;19921;-28
2022/10/26 10:42:04;;;;;;;;;;;;;;;12.93;81.06;101039.50;5050820;28;19967;-28
2022/10/26 10:44:30;;;;;;;;;;;;;;;13.02;80.84;101030.56;5033766;28;19940;-28
2022/10/26 10:46:59;;;;;;;;;;;;;;;13.11;80.58;101026.94;5034178;28;20281;-28
2022/10/26 10:49:26;;;;;;;;;;;;;;;13.20;80.37;101032.09;5051796;28;20328;-27
2022/10/26 10:51:51;;;;;;;;;;;;;;;13.28;80.32;101032.00;5033732;28;19913;-28
2022/10/26 10:54:19;;;;;;;;;;;;;;;13.34;80.33;101036.31;5052197;28;19940;-28
2022/10/26 10:56:52;;;;;;;;;;;;;;;13.41;80.17;101040.59;5056220;28;19917;-27
2022/10/26 10:59:24;;;;;;;;;;;;;;;13.51;80.55;101043.16;5050632;28;19924;-27
2022/10/26 11:01:59;;;;;;;;;;;;;;;13.58;80.69;101045.66;5053550;28;19921;-28
2022/10/26 11:04:25;;;;;;;;;;;;;;;13.65;80.50;101050.88;5054286;28;19923;-27
2022/10/26 11:06:50;;;;;;;;;;;;;;;13.71;79.91;101050.81;5055499;28;19936;-27
2022/10/26 11:09:16;;;;;;;;;;;;;;;13.79;79.38;101053.31;5055303;28;19924;-28
2022/10/26 11:11:43;;;;;;;;;;;;;;;13.84;79.22;101054.97;5054998;28;20293;-28
2022/10/26 11:14:19;;;;;;;;;;;;;;;13.91;79.04;101061.06;5055390;28;19959;-27
2022/10/26 11:17:04;;;;;;;;;;;;;;;13.97;78.79;101057.41;5037584;28;19913;-27
2022/10/26 11:19:31;;;;;;;;;;;;;;;14.01;78.56;101045.00;5054856;28;19935;-27
2022/10/26 11:21:56;;;;;;;;;;;;;;;14.02;78.11;101050.28;5024000;28;19921;-28
2022/10/26 11:24:29;;;;;;;;;;;;;;;14.06;77.92;101054.63;5036525;28;19947;-27
2022/10/26 11:26:56;;;;;;;;;;;;;;;14.08;77.96;101049.28;5037772;28;20331;-27
2022/10/26 11:29:30;;;;;;;;;;;;;;;14.11;77.78;101055.41;5037337;28;19913;-27
2022/10/26 11:32:14;;;;;;;;;;;;;;;14.15;77.50;101058.00;5037101;28;19944;-28
2022/10/26 11:34:58;;;;;;;;;;;;;;;14.18;77.51;101056.19;5036919;28;19917;-27
2022/10/26 11:37:26;;;;;;;;;;;;;;;14.21;77.38;101052.59;5055030;28;19917;-27
2022/10/26 11:40:01;;;;;;;;;;;;;;;14.22;77.09;101043.72;5037329;28;19943;-27
2022/10/26 11:42:35;;;;;;;;;;;;;;;14.24;76.97;101037.50;5035301;28;20366;-28
2022/10/26 11:45:02;;;;;;;;;;;;;;;14.27;77.08;101041.00;5034852;28;20396;-28
2022/10/26 11:47:33;;;;;;;;;;;;;;;14.29;77.01;101049.78;5035852;28;19917;-27
2022/10/26 11:50:17;;;;;;;;;;;;;;;14.33;76.92;101062.09;5034304;28;20339;-27
2022/10/26 11:52:47;;;;;;;;;;;;;;;14.34;77.31;101059.41;5034863;28;19975;-27
2022/10/26 11:55:12;;;;;;;;;;;;;;;14.35;77.08;101055.88;5016975;28;20522;-27
2022/10/26 11:57:37;;;;;;;;;;;;;;;14.38;77.32;101060.25;5046773;28;19967;-27
2022/10/26 12:00:14;;;;;;;;;;;;;;;14.38;77.34;101062.91;5054831;28;20349;-27
2022/10/26 12:02:40;;;;;;;;;;;;;;;14.40;76.94;101063.75;5054614;28;19912;-28
2022/10/26 12:05:15;;;;;;;;;;;;;;;14.43;76.89;101060.16;5028207;28;19917;-28
2022/10/26 12:07:42;;;;;;;;;;;;;;;14.45;76.84;101061.00;5015941;28;19920;-27
2022/10/26 12:10:18;;;;;;;;;;;;;;;14.47;76.67;101053.88;5016837;28;19957;-27
2022/10/26 12:13:02;;;;;;;;;;;;;;;14.49;76.92;101052.97;5034344;28;19913;-27
2022/10/26 12:15:29;;;;;;;;;;;;;;;14.52;76.87;101051.13;5034551;28;19920;-28
2022/10/26 12:17:58;;;;;;;;;;;;;;;14.54;76.84;101054.66;5020668;28;19979;-27
2022/10/26 12:20:41;;;;;;;;;;;;;;;14.55;77.00;101046.66;5038119;28;19921;-27
2022/10/26 12:23:07;;;;;;;;;;;;;;;14.57;77.20;101044.84;5054342;28;19913;-26
2022/10/26 12:25:32;;;;;;;;;;;;;;;14.58;77.26;101046.56;5054658;28;20276;-26
2022/10/26 12:27:59;;;;;;;;;;;;;;;14.60;77.40;101035.94;5054037;28;19920;-25
2022/10/26 12:30:24;;;;;;;;;;;;;;;14.61;77.43;101043.84;5054079;28;20356;-25
2022/10/26 12:32:53;;;;;;;;;;;;;;;14.62;77.61;101032.38;5048500;28;19917;-26
2022/10/26 12:35:38;;;;;;;;;;;;;;;14.66;77.52;101038.47;5033926;28;19960;-26
2022/10/26 12:38:22;;;;;;;;;;;;;;;14.69;77.88;101038.41;5033897;28;19923;-26
2022/10/26 12:40:47;;;;;;;;;;;;;;;14.72;78.22;101035.69;5033577;28;20277;-26
2022/10/26 12:43:12;;;;;;;;;;;;;;;14.77;78.48;101051.53;5008837;28;20012;-26
2022/10/26 12:45:38;;;;;;;;;;;;;;;14.82;78.48;101051.47;5033849;28;20378;-26
2022/10/26 12:48:04;;;;;;;;;;;;;;;14.87;78.44;101046.91;5032004;28;19923;-26